sim
Sign-in with your pilot id or email,
or register
Callsign
Passwort

Schedule Details

Flight Number: RYR8626
Departure: Weeze Airport (EDLV) at 05:30
Arrival: Fuerteventura Airport (GCFV) at 09:55
Route: Ryanair Passenger Schedule. Enter filed route here before submitting Pirep.

Weather Information
Getting current METAR information for EDLV 181950Z 08005KT 030V130 CAVOK 18/02 Q1025
Getting current METAR information for GCFV 182000Z 36016KT 9999 FEW045 18/11 Q1019

Schedule Frequency

Route Map